Hato Rey Heliport

PR-0068 · Cataño, Puerto Rico

罗盘
风向 的 风向 170° 直升机
风: 7 kt, 3 beaufort
0 ft 2.000 4.000 6.000 8.000 10.000
Cloud Cloud Cloud Cloud
SCT 4.000
Cloud Cloud Cloud Cloud Cloud Cloud
BKN 10.000
METAR TJIG 181355Z 17007KT 10SM SCT040 BKN100 32/23 A2992

METAR Hato Rey Heliport - PR-0068

Hato Rey Heliport是,Puerto Rico中的直升机场。 该机场位于纬度18,41920和经度-66,05670。 这个机场没有ICAO代码,我们使用PR-0068作为参考。 机场在San Juan FIR中。

该航空气象观测是针对Fernando Luis Ribas Dominicci Airport在2024年6月18日 09:55, 当地时间进行的。

机场观察

风向为170°,速度为7 kt。

可见度为16 km。

有疏云,零星散落的云朵在4.000 ft的高度 和 碎云在10.000 ft的高度。 破损或更高的上限为10.000 ft。

温度和风寒是32 °C。 热指数为37。 露点为23 °C,相对湿度为59%。 海平面上的气压为1013 hPa (QNH)。

白天

今天,太阳从05:48升起,在19:02降落。 这适用于Hato Rey Heliport,世界夏令时可能有所不同。 当地时间与世界标准时间之间的时差为-4 小时。 夏令时目前正在进行中。

公司介绍

我们没有关于这个机场的公司信息。

体会

到Vliegles.nl去找飞行课程,跳伞和其他飞行体验。 浏览页面,了解Hato Rey Heliport附近所有可用的活动。 你也可以使用搜索功能来寻找你所在地附近的特定飞行课程、跳伞或其他飞行体验。

乌云

4.000 ft SCT 疏云,零星散落的云朵
10.000 ft BKN 碎云

温度 & 天气

温度 32 °C
露点 23 °C
相对湿度 59%
热度指数 37 °C
Kp-index 2 (0-9)

白天

日出
05:48
中午
12:25
日落
19:02 (8:40)

小工具

你想在你的网站上有一个关于Hato Rey Heliport的当前航空天气(METAR)的小部件吗?

显示HTML代码
报告变更